Time;durP1;ratioP1;P1;durP2;ratioP2;P2;SDS_P1;SDS_P2;PMS_P1;PMS_P2;Temp;Humidity;BMP_temperature;BMP_pressure;BME280_temperature;BME280_humidity;BME280_pressure;Samples;Min_cycle;Max_cycle;Signal;HPM_P1;HPM_P2
2023/08/21 00:01:32;;;;;;;;;;;;;;;30.89;43.87;101468.73;107041;1251;25337;-49
2023/08/21 00:03:59;;;;;;;;;;;;;;;30.89;43.02;101466.70;107071;1251;24253;-49
2023/08/21 00:06:26;;;;;;;;;;;;;;;30.89;43.13;101460.15;107152;1256;25456;-49
2023/08/21 00:08:52;;;;;;;;;;;;;;;30.86;42.94;101460.58;107138;1261;25337;-50
2023/08/21 00:11:19;;;;;;;;;;;;;;;30.84;42.90;101460.59;106894;1267;25436;-50
2023/08/21 00:13:48;;;;;;;;;;;;;;;30.81;43.00;101460.45;106903;1270;25619;-49
2023/08/21 00:16:16;;;;;;;;;;;;;;;30.79;42.56;101460.32;106941;1257;25770;-49
2023/08/21 00:18:43;;;;;;;;;;;;;;;30.78;43.48;101457.38;106958;1268;25321;-49
2023/08/21 00:21:10;;;;;;;;;;;;;;;30.79;44.33;101457.52;106858;1267;25287;-49
2023/08/21 00:23:37;;;;;;;;;;;;;;;30.77;44.49;101454.67;107134;1257;24170;-50
2023/08/21 00:26:04;;;;;;;;;;;;;;;30.74;44.40;101454.38;107087;1254;24180;-49
2023/08/21 00:28:33;;;;;;;;;;;;;;;30.72;43.97;101454.40;107165;1264;25324;-49
2023/08/21 00:31:00;;;;;;;;;;;;;;;30.69;43.74;101453.02;107175;1267;25446;-48
2023/08/21 00:33:28;;;;;;;;;;;;;;;30.68;43.57;101451.73;106881;1254;379687;-49
2023/08/21 00:35:55;;;;;;;;;;;;;;;30.66;43.47;101446.52;107114;1266;25318;-49
2023/08/21 00:38:23;;;;;;;;;;;;;;;30.65;43.39;101445.94;107048;1257;25382;-51
2023/08/21 00:40:50;;;;;;;;;;;;;;;30.63;44.05;101440.77;107010;1266;22624;-49
2023/08/21 00:43:17;;;;;;;;;;;;;;;30.61;44.30;101443.96;107127;1251;25308;-49
2023/08/21 00:45:44;;;;;;;;;;;;;;;30.59;43.58;101443.48;107123;1260;24261;-49
2023/08/21 00:48:11;;;;;;;;;;;;;;;30.57;43.88;101441.38;107163;1257;25309;-49
2023/08/21 00:50:40;;;;;;;;;;;;;;;30.55;44.16;101439.75;106851;1257;23710;-49
2023/08/21 00:53:08;;;;;;;;;;;;;;;30.52;44.11;101444.98;107273;1263;25383;-49
2023/08/21 00:55:35;;;;;;;;;;;;;;;30.50;43.87;101446.93;106934;1267;25397;-49
2023/08/21 00:58:03;;;;;;;;;;;;;;;30.50;43.20;101446.05;107258;1257;25305;-49
2023/08/21 01:00:30;;;;;;;;;;;;;;;30.50;43.31;101442.52;107085;1260;25305;-49
2023/08/21 01:02:57;;;;;;;;;;;;;;;30.49;43.74;101442.08;106793;1260;25299;-49
2023/08/21 01:05:24;;;;;;;;;;;;;;;30.47;44.47;101442.23;106893;1260;25309;-49
2023/08/21 01:08:02;;;;;;;;;;;;;;;30.46;44.99;101440.38;107116;1263;24208;-49
2023/08/21 01:10:35;;;;;;;;;;;;;;;30.44;45.51;101438.55;107083;1250;22498;-49
2023/08/21 01:13:06;;;;;;;;;;;;;;;30.42;45.87;101436.77;107267;1257;25327;-48
2023/08/21 01:15:33;;;;;;;;;;;;;;;30.40;44.94;101439.46;107189;1254;25346;-49
2023/08/21 01:18:00;;;;;;;;;;;;;;;30.39;44.45;101437.63;107109;1257;25452;-49
2023/08/21 01:20:28;;;;;;;;;;;;;;;30.39;44.52;101440.02;107191;1260;25324;-49
2023/08/21 01:22:54;;;;;;;;;;;;;;;30.37;44.68;101441.42;107143;1263;25436;-49
2023/08/21 01:25:22;;;;;;;;;;;;;;;30.37;44.63;101441.56;107128;1254;22623;-49
2023/08/21 01:27:49;;;;;;;;;;;;;;;30.38;44.74;101443.98;107119;1263;25379;-48
2023/08/21 01:30:16;;;;;;;;;;;;;;;30.38;45.14;101450.57;107083;1263;25343;-49
2023/08/21 01:32:49;;;;;;;;;;;;;;;30.38;45.20;101450.23;107129;1257;25327;-49
2023/08/21 01:35:16;;;;;;;;;;;;;;;30.37;44.88;101450.52;107144;1257;25324;-49
2023/08/21 01:37:43;;;;;;;;;;;;;;;30.35;44.67;101450.59;107068;1263;25347;-49
2023/08/21 01:40:10;;;;;;;;;;;;;;;30.31;44.80;101449.34;106901;1254;25331;-49
2023/08/21 01:42:38;;;;;;;;;;;;;;;30.27;44.43;101452.33;106887;1266;22533;-49
2023/08/21 01:45:06;;;;;;;;;;;;;;;30.23;44.05;101448.95;106776;1274;25306;-49
2023/08/21 01:47:33;;;;;;;;;;;;;;;30.19;43.46;101450.59;107138;1261;25343;-48
2023/08/21 01:49:59;;;;;;;;;;;;;;;30.16;42.91;101453.59;107080;1257;25373;-49
2023/08/21 01:52:26;;;;;;;;;;;;;;;30.14;42.68;101452.17;107136;1260;22501;-49
2023/08/21 01:54:53;;;;;;;;;;;;;;;30.12;42.37;101454.70;106795;1257;22502;-49
2023/08/21 01:57:20;;;;;;;;;;;;;;;30.10;42.35;101457.86;107109;1255;25397;-49
2023/08/21 01:59:47;;;;;;;;;;;;;;;30.09;42.70;101459.64;107144;1269;25360;-49
2023/08/21 02:02:14;;;;;;;;;;;;;;;30.06;43.14;101460.63;107172;1260;23407;-49
2023/08/21 02:04:41;;;;;;;;;;;;;;;30.03;43.19;101459.84;106927;1254;25449;-49
2023/08/21 02:07:07;;;;;;;;;;;;;;;29.99;43.84;101461.99;107028;1254;22620;-49
2023/08/21 02:09:34;;;;;;;;;;;;;;;29.95;44.17;101462.12;106722;1270;25337;-49
2023/08/21 02:12:01;;;;;;;;;;;;;;;29.92;44.14;101456.60;106942;1255;25446;-49
2023/08/21 02:14:28;;;;;;;;;;;;;;;29.88;44.08;101458.95;107121;1254;25334;-50
2023/08/21 02:16:55;;;;;;;;;;;;;;;29.84;44.15;101451.39;106953;1273;24347;-49
2023/08/21 02:19:22;;;;;;;;;;;;;;;29.80;43.95;101452.85;107215;1257;25333;-49
2023/08/21 02:21:49;;;;;;;;;;;;;;;29.75;43.37;101454.23;106845;1257;25306;-49
2023/08/21 02:24:16;;;;;;;;;;;;;;;29.72;43.01;101454.11;107012;1254;25455;-49
2023/08/21 02:26:45;;;;;;;;;;;;;;;29.69;42.81;101454.86;107106;1254;25296;-50
2023/08/21 02:29:12;;;;;;;;;;;;;;;29.67;42.93;101454.35;106913;1267;25340;-49
2023/08/21 02:31:39;;;;;;;;;;;;;;;29.65;43.04;101452.17;107069;1251;25328;-50
2023/08/21 02:34:06;;;;;;;;;;;;;;;29.64;43.13;101455.52;107096;1260;25516;-49
2023/08/21 02:36:33;;;;;;;;;;;;;;;29.63;43.30;101457.60;107203;1254;25343;-49
2023/08/21 02:39:00;;;;;;;;;;;;;;;29.62;43.49;101460.39;106857;1260;25333;-50
2023/08/21 02:41:27;;;;;;;;;;;;;;;29.62;43.88;101469.31;107000;1266;25451;-50
2023/08/21 02:43:54;;;;;;;;;;;;;;;29.61;44.38;101469.20;107183;1263;25318;-50
2023/08/21 02:46:21;;;;;;;;;;;;;;;29.61;44.48;101467.42;107235;1254;25318;-49
2023/08/21 02:48:48;;;;;;;;;;;;;;;29.62;44.05;101463.42;107129;1263;25383;-49
2023/08/21 02:51:14;;;;;;;;;;;;;;;29.61;43.20;101467.21;107156;1266;25306;-49
2023/08/21 02:53:41;;;;;;;;;;;;;;;29.63;43.01;101467.09;107180;1263;22504;-50
2023/08/21 02:56:08;;;;;;;;;;;;;;;29.64;43.15;101463.02;107094;1251;25445;-50
2023/08/21 02:58:35;;;;;;;;;;;;;;;29.65;43.51;101468.09;107077;1266;22521;-50
2023/08/21 03:01:02;;;;;;;;;;;;;;;29.66;44.05;101472.33;107117;1254;25309;-50
2023/08/21 03:03:29;;;;;;;;;;;;;;;29.66;44.55;101471.83;107138;1263;25343;-49
2023/08/21 03:05:56;;;;;;;;;;;;;;;29.66;45.60;101472.11;107133;1266;25343;-49
2023/08/21 03:08:23;;;;;;;;;;;;;;;29.67;46.99;101472.63;107036;1257;25539;-49
2023/08/21 03:10:50;;;;;;;;;;;;;;;29.66;47.84;101472.67;107044;1256;25334;-49
2023/08/21 03:13:17;;;;;;;;;;;;;;;29.67;48.77;101475.23;107137;1257;25340;-50
2023/08/21 03:15:46;;;;;;;;;;;;;;;29.67;49.35;101474.60;107157;1254;22521;-50
2023/08/21 03:18:13;;;;;;;;;;;;;;;29.66;49.90;101470.05;107031;1260;25309;-50
2023/08/21 03:20:46;;;;;;;;;;;;;;;29.65;49.65;101474.54;107088;1265;22509;-50
2023/08/21 03:23:14;;;;;;;;;;;;;;;29.65;48.69;101477.21;107107;1257;25296;-50
2023/08/21 03:25:41;;;;;;;;;;;;;;;29.65;48.80;101479.36;107151;1263;25333;-49
2023/08/21 03:28:08;;;;;;;;;;;;;;;29.66;48.14;101480.33;106845;1256;25315;-50
2023/08/21 03:30:35;;;;;;;;;;;;;;;29.67;47.55;101479.03;107150;1263;25426;-49
2023/08/21 03:33:02;;;;;;;;;;;;;;;29.68;47.08;101481.75;107195;1254;25416;-49
2023/08/21 03:35:30;;;;;;;;;;;;;;;29.70;47.48;101476.95;107042;1250;26481;-49
2023/08/21 03:37:57;;;;;;;;;;;;;;;29.72;47.77;101474.13;106887;1261;25417;-50
2023/08/21 03:40:24;;;;;;;;;;;;;;;29.73;47.49;101477.30;106882;1266;24390;-48
2023/08/21 03:42:51;;;;;;;;;;;;;;;29.72;47.38;101476.05;107154;1255;22516;-49
2023/08/21 03:45:20;;;;;;;;;;;;;;;29.73;47.61;101477.46;107115;1257;24193;-49
2023/08/21 03:47:47;;;;;;;;;;;;;;;29.73;47.60;101480.83;106829;1257;25458;-49
2023/08/21 03:50:17;;;;;;;;;;;;;;;29.73;47.77;101480.50;107070;1257;25327;-49
2023/08/21 03:52:44;;;;;;;;;;;;;;;29.72;47.93;101485.70;107171;1256;25336;-49
2023/08/21 03:55:11;;;;;;;;;;;;;;;29.72;47.83;101485.71;107096;1263;25455;-49
2023/08/21 03:57:38;;;;;;;;;;;;;;;29.71;48.16;101484.55;106796;1262;25313;-49
2023/08/21 04:00:07;;;;;;;;;;;;;;;29.71;48.17;101479.77;107150;1263;25372;-49
2023/08/21 04:02:41;;;;;;;;;;;;;;;29.71;47.77;101484.89;107013;1254;25344;-49
2023/08/21 04:05:10;;;;;;;;;;;;;;;29.71;47.69;101487.09;107093;1262;22610;-49
2023/08/21 04:07:38;;;;;;;;;;;;;;;29.71;47.89;101487.94;106893;1251;22523;-49
2023/08/21 04:10:05;;;;;;;;;;;;;;;29.71;47.80;101487.39;106949;1262;25383;-49
2023/08/21 04:12:32;;;;;;;;;;;;;;;29.70;47.85;101486.94;106890;1260;25333;-49
2023/08/21 04:14:58;;;;;;;;;;;;;;;29.70;47.62;101488.19;106920;1256;25459;-49
2023/08/21 04:17:25;;;;;;;;;;;;;;;29.71;47.61;101484.05;107049;1260;25334;-49
2023/08/21 04:19:53;;;;;;;;;;;;;;;29.71;47.85;101489.58;107106;1257;25308;-49
2023/08/21 04:22:19;;;;;;;;;;;;;;;29.71;47.53;101488.67;107107;1263;25333;-49
2023/08/21 04:24:46;;;;;;;;;;;;;;;29.69;47.33;101492.57;107140;1266;25334;-49
2023/08/21 04:27:13;;;;;;;;;;;;;;;29.69;47.37;101490.79;107116;1260;25545;-49
2023/08/21 04:29:40;;;;;;;;;;;;;;;29.69;47.46;101491.91;107136;1256;25334;-49
2023/08/21 04:32:07;;;;;;;;;;;;;;;29.69;47.69;101493.50;107242;1254;22593;-49
2023/08/21 04:34:34;;;;;;;;;;;;;;;29.70;47.76;101495.36;106856;1274;25337;-49
2023/08/21 04:37:04;;;;;;;;;;;;;;;29.70;47.65;101498.04;107227;1262;22591;-49
2023/08/21 04:39:31;;;;;;;;;;;;;;;29.70;47.88;101498.94;106935;1260;25308;-49
2023/08/21 04:41:58;;;;;;;;;;;;;;;29.71;48.20;101499.23;107094;1254;25376;-49
2023/08/21 04:44:25;;;;;;;;;;;;;;;29.72;48.40;101505.93;107151;1266;25382;-49
2023/08/21 04:46:52;;;;;;;;;;;;;;;29.72;48.33;101507.52;107011;1257;24163;-49
2023/08/21 04:49:19;;;;;;;;;;;;;;;29.73;48.12;101506.79;107082;1254;25334;-49
2023/08/21 04:51:46;;;;;;;;;;;;;;;29.73;48.28;101507.63;107196;1253;25308;-49
2023/08/21 04:54:13;;;;;;;;;;;;;;;29.74;48.33;101508.44;107030;1254;25385;-49
2023/08/21 04:56:40;;;;;;;;;;;;;;;29.75;47.77;101507.45;107095;1263;25308;-49
2023/08/21 04:59:08;;;;;;;;;;;;;;;29.75;47.35;101510.35;107160;1257;25305;-49
2023/08/21 05:01:35;;;;;;;;;;;;;;;29.75;47.58;101506.61;107138;1257;25379;-49
2023/08/21 05:04:02;;;;;;;;;;;;;;;29.75;47.56;101506.95;107073;1253;25456;-49
2023/08/21 05:06:31;;;;;;;;;;;;;;;29.75;47.54;101506.08;107126;1255;25309;-49
2023/08/21 05:08:58;;;;;;;;;;;;;;;29.75;47.73;101506.98;107169;1256;25385;-49
2023/08/21 05:11:25;;;;;;;;;;;;;;;29.74;47.70;101506.48;107131;1254;23227;-49
2023/08/21 05:13:51;;;;;;;;;;;;;;;29.76;47.85;101508.34;107140;1263;25431;-49
2023/08/21 05:16:19;;;;;;;;;;;;;;;29.76;47.88;101507.74;107128;1260;25308;-49
2023/08/21 05:18:47;;;;;;;;;;;;;;;29.78;48.04;101512.20;107200;1254;25480;-49
2023/08/21 05:21:14;;;;;;;;;;;;;;;29.80;48.25;101510.66;106797;1267;25296;-49
2023/08/21 05:23:42;;;;;;;;;;;;;;;29.80;48.11;101505.73;107242;1264;25382;-49
2023/08/21 05:26:09;;;;;;;;;;;;;;;29.81;48.18;101504.95;107119;1255;25333;-49
2023/08/21 05:28:36;;;;;;;;;;;;;;;29.82;47.70;101504.84;107056;1263;25372;-49
2023/08/21 05:31:02;;;;;;;;;;;;;;;29.84;47.71;101507.93;107152;1256;25383;-49
2023/08/21 05:33:38;;;;;;;;;;;;;;;29.85;47.86;101509.26;107074;1255;25309;-47
2023/08/21 05:36:05;;;;;;;;;;;;;;;29.85;47.51;101509.45;106837;1266;25359;-50
2023/08/21 05:38:32;;;;;;;;;;;;;;;29.85;47.36;101509.77;107011;1254;25336;-51
2023/08/21 05:41:00;;;;;;;;;;;;;;;29.87;47.56;101512.67;106690;1266;25318;-49
2023/08/21 05:43:28;;;;;;;;;;;;;;;29.90;47.59;101511.08;106971;1260;22516;-50
2023/08/21 05:45:57;;;;;;;;;;;;;;;29.94;47.84;101510.94;106977;1263;22523;-50
2023/08/21 05:48:24;;;;;;;;;;;;;;;29.97;47.89;101511.38;107093;1256;25328;-50
2023/08/21 05:50:51;;;;;;;;;;;;;;;30.00;47.70;101510.85;107053;1263;23324;-49
2023/08/21 05:53:18;;;;;;;;;;;;;;;30.04;47.77;101513.74;106883;1263;25589;-48
2023/08/21 05:55:45;;;;;;;;;;;;;;;30.08;48.15;101518.38;107170;1256;24219;-49
2023/08/21 05:58:12;;;;;;;;;;;;;;;30.15;48.04;101521.71;107145;1260;23231;-49
2023/08/21 06:00:39;;;;;;;;;;;;;;;30.21;48.06;101517.02;107122;1255;25309;-48
2023/08/21 06:03:06;;;;;;;;;;;;;;;30.28;47.69;101519.93;107069;1257;25455;-49
2023/08/21 06:05:46;;;;;;;;;;;;;;;30.35;47.30;101518.89;106917;1257;25385;-48
2023/08/21 06:08:14;;;;;;;;;;;;;;;30.44;46.76;101520.90;106965;1266;22501;-49
2023/08/21 06:10:41;;;;;;;;;;;;;;;30.53;46.63;101524.00;107114;1263;25347;-48
2023/08/21 06:13:08;;;;;;;;;;;;;;;30.61;45.99;101524.19;107158;1257;25324;-48
2023/08/21 06:15:35;;;;;;;;;;;;;;;30.69;46.30;101526.70;107146;1263;25458;-49
2023/08/21 06:18:03;;;;;;;;;;;;;;;30.75;46.68;101527.73;107057;1263;25305;-48
2023/08/21 06:20:30;;;;;;;;;;;;;;;30.80;46.41;101532.07;107087;1257;25372;-49
2023/08/21 06:22:57;;;;;;;;;;;;;;;30.84;46.30;101530.30;107186;1260;25334;-49
2023/08/21 06:25:24;;;;;;;;;;;;;;;30.89;46.41;101528.19;107094;1260;25423;-49
2023/08/21 06:27:51;;;;;;;;;;;;;;;30.94;46.50;101531.11;107122;1266;25468;-48
2023/08/21 06:30:26;;;;;;;;;;;;;;;30.98;46.52;101529.12;107169;1254;25314;-48
2023/08/21 06:32:53;;;;;;;;;;;;;;;31.01;46.12;101531.82;107110;1263;24279;-48
2023/08/21 06:35:20;;;;;;;;;;;;;;;31.06;46.17;101534.44;107075;1263;24657;-49
2023/08/21 06:37:47;;;;;;;;;;;;;;;31.11;45.71;101536.40;107100;1267;25343;-49
2023/08/21 06:40:14;;;;;;;;;;;;;;;31.18;45.83;101537.67;107133;1254;23403;-48
2023/08/21 06:42:41;;;;;;;;;;;;;;;31.27;46.06;101542.98;106827;1266;25333;-48
2023/08/21 06:45:09;;;;;;;;;;;;;;;31.35;45.80;101542.52;106932;1267;25392;-49
2023/08/21 06:47:35;;;;;;;;;;;;;;;31.42;45.92;101541.15;107178;1263;25309;-49
2023/08/21 06:50:03;;;;;;;;;;;;;;;31.45;45.97;101542.81;107082;1257;25430;-49
2023/08/21 06:52:30;;;;;;;;;;;;;;;31.47;46.25;101540.35;107175;1254;25356;-48
2023/08/21 06:54:57;;;;;;;;;;;;;;;31.50;46.01;101539.88;107237;1269;25308;-48
2023/08/21 06:57:24;;;;;;;;;;;;;;;31.52;45.90;101538.33;107083;1255;25385;-48
2023/08/21 06:59:50;;;;;;;;;;;;;;;31.56;46.22;101537.27;107052;1254;25309;-49
2023/08/21 07:02:17;;;;;;;;;;;;;;;31.61;46.06;101539.67;107117;1254;25309;-48
2023/08/21 07:04:44;;;;;;;;;;;;;;;31.64;45.73;101539.12;107054;1264;25300;-48
2023/08/21 07:07:11;;;;;;;;;;;;;;;31.68;45.64;101539.52;107138;1257;25318;-48
2023/08/21 07:09:39;;;;;;;;;;;;;;;31.70;45.56;101536.70;106627;1272;25327;-48
2023/08/21 07:12:06;;;;;;;;;;;;;;;31.79;46.10;101539.23;107219;1255;25337;-48
2023/08/21 07:14:33;;;;;;;;;;;;;;;31.89;45.96;101540.73;106876;1257;25386;-48
2023/08/21 07:17:00;;;;;;;;;;;;;;;31.98;46.03;101541.55;107112;1267;25315;-48
2023/08/21 07:19:27;;;;;;;;;;;;;;;32.07;46.15;101543.63;106871;1263;25439;-49
2023/08/21 07:21:54;;;;;;;;;;;;;;;32.21;46.13;101544.83;107151;1254;25286;-49
2023/08/21 07:24:21;;;;;;;;;;;;;;;32.39;46.12;101542.05;107223;1254;25287;-48
2023/08/21 07:26:48;;;;;;;;;;;;;;;32.58;45.76;101541.34;106919;1259;25390;-48
2023/08/21 07:29:15;;;;;;;;;;;;;;;32.77;45.35;101541.75;107134;1263;25343;-49
2023/08/21 07:31:42;;;;;;;;;;;;;;;32.93;44.71;101542.95;107173;1260;25559;-49
2023/08/21 07:34:09;;;;;;;;;;;;;;;33.06;44.97;101539.28;107134;1254;25401;-49
2023/08/21 07:36:36;;;;;;;;;;;;;;;33.16;45.00;101535.35;107231;1257;25308;-48
2023/08/21 07:39:03;;;;;;;;;;;;;;;33.20;44.01;101536.63;107088;1263;25327;-48
2023/08/21 07:41:30;;;;;;;;;;;;;;;33.23;44.36;101536.04;107161;1254;25417;-49
2023/08/21 07:43:57;;;;;;;;;;;;;;;33.25;44.84;101534.83;107158;1254;25327;-49
2023/08/21 07:46:24;;;;;;;;;;;;;;;33.26;44.99;101532.27;107233;1262;25459;-48
2023/08/21 07:48:52;;;;;;;;;;;;;;;33.25;44.97;101533.28;107204;1255;25252;-48
2023/08/21 07:51:19;;;;;;;;;;;;;;;33.24;44.64;101529.77;107782;1257;25525;-49
2023/08/21 07:53:46;;;;;;;;;;;;;;;33.23;44.74;101527.68;107204;1263;22511;-49
2023/08/21 07:56:13;;;;;;;;;;;;;;;33.25;44.75;101527.89;107209;1256;23157;-49
2023/08/21 07:58:40;;;;;;;;;;;;;;;33.24;44.92;101526.29;107098;1263;22498;-49
2023/08/21 08:01:07;;;;;;;;;;;;;;;33.24;45.02;101526.03;107137;1257;25296;-49
2023/08/21 08:03:34;;;;;;;;;;;;;;;33.27;45.00;101527.30;107118;1257;25423;-50
2023/08/21 08:06:01;;;;;;;;;;;;;;;33.30;45.05;101527.15;107079;1254;25496;-50
2023/08/21 08:08:29;;;;;;;;;;;;;;;33.34;44.77;101524.96;107225;1267;23116;-49
2023/08/21 08:11:00;;;;;;;;;;;;;;;33.36;44.88;101526.52;107335;1254;25370;-49
2023/08/21 08:13:27;;;;;;;;;;;;;;;33.40;44.88;101527.32;107187;1266;25414;-50
2023/08/21 08:15:54;;;;;;;;;;;;;;;33.44;44.99;101526.86;107135;1266;25376;-50
2023/08/21 08:18:21;;;;;;;;;;;;;;;33.48;45.02;101530.59;107177;1266;25397;-50
2023/08/21 08:20:48;;;;;;;;;;;;;;;33.53;44.85;101531.02;107029;1257;22656;-50
2023/08/21 08:23:15;;;;;;;;;;;;;;;33.58;44.42;101531.88;106877;1259;23876;-49
2023/08/21 08:25:42;;;;;;;;;;;;;;;33.65;43.93;101527.92;107191;1257;25305;-50
2023/08/21 08:28:09;;;;;;;;;;;;;;;33.73;43.91;101529.67;107292;1263;24252;-49
2023/08/21 08:30:36;;;;;;;;;;;;;;;33.75;44.26;101529.23;107386;1254;23226;-50
2023/08/21 08:33:03;;;;;;;;;;;;;;;33.82;44.19;101532.59;107111;1263;24160;-49
2023/08/21 08:35:30;;;;;;;;;;;;;;;33.90;43.93;101529.20;107203;1264;25357;-49
2023/08/21 08:37:57;;;;;;;;;;;;;;;33.94;43.16;101526.01;107252;1256;24198;-50
2023/08/21 08:40:24;;;;;;;;;;;;;;;34.00;43.18;101526.66;106979;1259;25459;-50
2023/08/21 08:42:51;;;;;;;;;;;;;;;34.05;43.03;101522.71;107242;1260;25545;-50
2023/08/21 08:45:20;;;;;;;;;;;;;;;34.10;42.90;101522.00;107248;1263;25309;-51
2023/08/21 08:47:47;;;;;;;;;;;;;;;34.14;42.73;101520.81;107080;1263;24180;-49
2023/08/21 08:50:14;;;;;;;;;;;;;;;34.19;41.98;101518.95;107395;1257;23281;-50
2023/08/21 08:52:41;;;;;;;;;;;;;;;34.26;41.69;101516.05;107325;1251;22643;-50
2023/08/21 08:55:08;;;;;;;;;;;;;;;34.32;41.08;101510.92;107067;1266;25305;-49
2023/08/21 08:57:35;;;;;;;;;;;;;;;34.37;40.84;101512.63;107591;1252;25337;-49
2023/08/21 09:00:03;;;;;;;;;;;;;;;34.45;40.59;101507.42;107232;1256;25333;-50
2023/08/21 09:02:31;;;;;;;;;;;;;;;34.53;40.15;101505.17;107247;1265;25303;-51
2023/08/21 09:04:58;;;;;;;;;;;;;;;34.60;39.78;101504.70;106969;1267;25327;-49
2023/08/21 09:07:25;;;;;;;;;;;;;;;34.68;39.02;101503.46;107134;1253;25309;-51
2023/08/21 09:09:52;;;;;;;;;;;;;;;34.76;38.42;101503.61;107302;1257;25299;-50
2023/08/21 09:12:20;;;;;;;;;;;;;;;34.82;37.87;101497.70;106812;1253;25458;-49
2023/08/21 09:14:47;;;;;;;;;;;;;;;34.88;37.35;101496.63;107518;1257;25300;-51
2023/08/21 09:17:14;;;;;;;;;;;;;;;34.95;37.37;101498.71;107316;1255;25299;-52
2023/08/21 09:19:41;;;;;;;;;;;;;;;35.02;37.63;101497.24;107194;1263;23235;-50
2023/08/21 09:22:15;;;;;;;;;;;;;;;35.07;37.47;101493.91;106990;1266;24350;-49
2023/08/21 09:25:00;;;;;;;;;;;;;;;35.13;36.53;101488.35;107098;1254;22496;-50
2023/08/21 09:27:27;;;;;;;;;;;;;;;35.18;36.96;101486.30;106826;1257;24210;-49
2023/08/21 09:29:54;;;;;;;;;;;;;;;35.24;36.71;101487.89;107257;1259;25455;-50
2023/08/21 09:32:21;;;;;;;;;;;;;;;35.29;36.58;101488.17;107130;1254;25369;-50
2023/08/21 09:34:48;;;;;;;;;;;;;;;35.33;36.56;101481.02;107415;1254;25337;-49
2023/08/21 09:37:17;;;;;;;;;;;;;;;35.39;36.80;101484.55;107329;1257;25290;-49
2023/08/21 09:39:45;;;;;;;;;;;;;;;35.43;37.01;101484.23;107259;1263;25402;-49
2023/08/21 09:42:12;;;;;;;;;;;;;;;35.47;36.22;101481.59;108034;1254;25349;-49
2023/08/21 09:44:39;;;;;;;;;;;;;;;35.52;35.97;101480.63;107288;1257;22617;-49
2023/08/21 09:47:12;;;;;;;;;;;;;;;35.57;36.16;101481.31;107307;1263;25309;-50
2023/08/21 09:49:39;;;;;;;;;;;;;;;35.61;36.17;101481.56;107534;1263;25327;-49
2023/08/21 09:52:06;;;;;;;;;;;;;;;35.66;36.11;101478.69;107118;1257;25324;-50
2023/08/21 09:54:33;;;;;;;;;;;;;;;35.68;36.08;101477.11;107257;1257;25441;-50
2023/08/21 09:57:01;;;;;;;;;;;;;;;35.70;36.05;101476.66;107149;1257;25311;-50
2023/08/21 09:59:28;;;;;;;;;;;;;;;35.72;35.72;101475.89;106884;1254;22527;-50
2023/08/21 10:01:55;;;;;;;;;;;;;;;35.76;35.42;101472.55;107053;1263;25299;-49
2023/08/21 10:04:22;;;;;;;;;;;;;;;35.80;35.19;101473.70;106678;1262;25386;-49
2023/08/21 10:06:50;;;;;;;;;;;;;;;35.84;35.66;101472.46;106396;1273;25306;-51
2023/08/21 10:09:17;;;;;;;;;;;;;;;35.88;35.70;101477.66;106804;1260;25462;-50
2023/08/21 10:11:44;;;;;;;;;;;;;;;35.90;35.32;101472.74;106783;1266;25487;-50
2023/08/21 10:14:11;;;;;;;;;;;;;;;35.93;35.01;101472.49;106741;1262;25351;-50
2023/08/21 10:16:39;;;;;;;;;;;;;;;35.96;34.26;101469.09;106902;1259;24451;-50
2023/08/21 10:19:07;;;;;;;;;;;;;;;36.00;33.79;101470.48;106871;1259;25324;-49
2023/08/21 10:21:34;;;;;;;;;;;;;;;36.04;33.58;101469.27;106750;1260;25321;-49
2023/08/21 10:24:02;;;;;;;;;;;;;;;36.08;33.81;101467.65;106871;1260;25376;-49
2023/08/21 10:26:29;;;;;;;;;;;;;;;36.13;33.98;101466.96;106833;1260;22615;-50
2023/08/21 10:29:02;;;;;;;;;;;;;;;36.16;34.34;101466.98;106905;1260;25380;-50
2023/08/21 10:31:30;;;;;;;;;;;;;;;36.18;34.37;101463.58;107030;1260;26486;-49
2023/08/21 10:33:58;;;;;;;;;;;;;;;36.21;34.00;101460.19;106884;1266;25286;-50
2023/08/21 10:36:42;;;;;;;;;;;;;;;36.24;33.17;101457.12;107041;1260;25453;-49
2023/08/21 10:39:16;;;;;;;;;;;;;;;36.28;32.67;101455.48;106545;1262;25334;-49
2023/08/21 10:41:53;;;;;;;;;;;;;;;36.33;32.36;101458.33;106855;1259;25308;-49
2023/08/21 10:44:35;;;;;;;;;;;;;;;36.38;32.72;101455.94;107281;1257;25309;-50
2023/08/21 10:47:22;;;;;;;;;;;;;;;36.42;32.75;101454.20;107358;1253;25459;-49
2023/08/21 10:49:50;;;;;;;;;;;;;;;36.44;33.14;101453.27;107051;1260;25540;-49
2023/08/21 10:52:25;;;;;;;;;;;;;;;36.45;33.65;101456.02;107177;1263;25492;-49
2023/08/21 10:54:52;;;;;;;;;;;;;;;36.46;33.94;101453.73;106904;1264;25222;-49
2023/08/21 10:57:19;;;;;;;;;;;;;;;36.47;34.13;101451.95;107161;1264;23171;-50
2023/08/21 10:59:56;;;;;;;;;;;;;;;36.48;33.82;101452.17;107214;1257;22512;-49
2023/08/21 11:02:23;;;;;;;;;;;;;;;36.50;33.84;101448.54;107200;1257;23874;-50
2023/08/21 11:04:51;;;;;;;;;;;;;;;36.51;33.88;101443.71;107153;1257;25459;-49
2023/08/21 11:07:18;;;;;;;;;;;;;;;36.52;33.75;101443.23;107258;1267;25314;-49
2023/08/21 11:09:45;;;;;;;;;;;;;;;36.52;33.31;101442.80;107266;1251;25479;-49
2023/08/21 11:12:13;;;;;;;;;;;;;;;36.53;33.21;101442.70;107040;1257;25357;-49
2023/08/21 11:14:39;;;;;;;;;;;;;;;36.54;33.02;101440.97;107301;1256;23394;-50
2023/08/21 11:17:07;;;;;;;;;;;;;;;36.55;33.31;101440.27;106981;1263;22501;-50
2023/08/21 11:19:34;;;;;;;;;;;;;;;36.56;33.37;101444.13;106867;1260;25418;-49
2023/08/21 11:22:05;;;;;;;;;;;;;;;36.57;33.21;101441.13;107333;1251;25379;-50
2023/08/21 11:24:42;;;;;;;;;;;;;;;36.59;32.82;101437.46;107202;1254;22495;-50
2023/08/21 11:27:10;;;;;;;;;;;;;;;36.62;32.76;101437.28;106840;1275;25371;-50
2023/08/21 11:29:38;;;;;;;;;;;;;;;36.64;33.42;101436.98;107376;1256;24194;-50
2023/08/21 11:32:15;;;;;;;;;;;;;;;36.65;34.01;101432.58;107090;1263;22511;-50
2023/08/21 11:34:49;;;;;;;;;;;;;;;36.65;32.77;101431.86;107142;1260;25373;-50
2023/08/21 11:37:17;;;;;;;;;;;;;;;36.66;31.82;101431.76;107644;1256;25458;-49
2023/08/21 11:39:48;;;;;;;;;;;;;;;36.72;31.45;101431.12;107156;1256;25345;-50
2023/08/21 11:42:15;;;;;;;;;;;;;;;36.78;30.81;101428.09;107135;1257;25408;-50
2023/08/21 11:44:42;;;;;;;;;;;;;;;36.83;30.61;101425.86;107222;1266;24199;-50
2023/08/21 11:47:09;;;;;;;;;;;;;;;36.89;30.18;101424.94;107178;1256;25305;-50
2023/08/21 11:49:36;;;;;;;;;;;;;;;36.94;30.68;101421.48;107438;1257;25317;-49
2023/08/21 11:52:03;;;;;;;;;;;;;;;36.95;30.79;101422.02;106982;1259;25407;-50
2023/08/21 11:54:35;;;;;;;;;;;;;;;36.97;30.16;101420.36;107178;1256;25358;-51
2023/08/21 11:57:08;;;;;;;;;;;;;;;37.00;30.39;101420.30;107215;1252;23314;-50
2023/08/21 11:59:36;;;;;;;;;;;;;;;37.03;31.60;101421.91;106982;1259;24304;-50
2023/08/21 12:02:23;;;;;;;;;;;;;;;37.03;31.44;101420.13;107043;1251;25333;-51
2023/08/21 12:05:14;;;;;;;;;;;;;;;37.06;31.16;101418.03;109060;1265;22793;-51
2023/08/21 12:07:40;;;;;;;;;;;;;;;37.13;30.87;101423.08;107542;1266;25280;-50
2023/08/21 12:10:08;;;;;;;;;;;;;;;37.17;31.42;101419.30;106885;1269;25462;-49
2023/08/21 12:12:35;;;;;;;;;;;;;;;37.18;31.74;101419.36;106803;1270;24360;-49
2023/08/21 12:15:02;;;;;;;;;;;;;;;37.18;31.49;101421.73;106617;1262;25299;-50
2023/08/21 12:17:30;;;;;;;;;;;;;;;37.18;30.50;101418.07;106347;1278;25341;-50
2023/08/21 12:19:57;;;;;;;;;;;;;;;37.20;31.31;101412.66;106869;1260;25420;-49
2023/08/21 12:22:27;;;;;;;;;;;;;;;37.21;32.28;101413.13;106742;1278;25290;-49
2023/08/21 12:24:54;;;;;;;;;;;;;;;37.24;31.28;101402.48;107556;1262;23206;-49
2023/08/21 12:27:22;;;;;;;;;;;;;;;37.27;29.60;101400.33;107066;1270;22506;-49
2023/08/21 12:29:49;;;;;;;;;;;;;;;37.30;28.77;101393.56;107127;1260;25349;-51